createdAt,value
2022-12-22T00:02:37.654Z,7.87
2022-12-22T00:06:00.395Z,7.86
2022-12-22T00:09:22.448Z,7.84
2022-12-22T00:12:43.742Z,7.94
2022-12-22T00:16:10.496Z,7.88
2022-12-22T00:19:32.789Z,7.82
2022-12-22T00:22:54.200Z,7.80
2022-12-22T00:26:18.619Z,7.71
2022-12-22T00:29:41.032Z,7.53
2022-12-22T00:33:04.310Z,7.64
2022-12-22T00:40:12.435Z,7.59
2022-12-22T00:43:33.086Z,7.65
2022-12-22T00:46:57.099Z,7.86
2022-12-22T00:50:19.718Z,7.83
2022-12-22T00:57:22.869Z,7.92
2022-12-22T01:00:46.528Z,7.98
2022-12-22T01:04:10.519Z,8.02
2022-12-22T01:07:34.866Z,7.81
2022-12-22T01:14:36.793Z,7.65
2022-12-22T01:17:57.192Z,7.74
2022-12-22T01:21:18.306Z,7.71
2022-12-22T01:24:40.470Z,7.84
2022-12-22T01:28:06.120Z,7.84
2022-12-22T01:31:37.517Z,8.03
2022-12-22T01:34:58.484Z,7.87
2022-12-22T01:38:20.729Z,7.64
2022-12-22T01:41:44.800Z,7.66
2022-12-22T01:45:05.832Z,7.57
2022-12-22T01:48:31.837Z,7.51
2022-12-22T01:51:52.306Z,7.60
2022-12-22T01:55:23.301Z,7.69
2022-12-22T01:58:48.684Z,7.81
2022-12-22T02:02:09.288Z,7.95
2022-12-22T02:05:34.294Z,8.02
2022-12-22T02:09:00.149Z,7.98
2022-12-22T02:12:28.577Z,8.08
2022-12-22T02:16:02.250Z,8.23
2022-12-22T02:19:30.288Z,8.15
2022-12-22T02:23:01.970Z,8.04
2022-12-22T02:26:49.093Z,8.14
2022-12-22T02:30:13.097Z,8.08
2022-12-22T02:33:33.757Z,8.16
2022-12-22T02:37:05.266Z,8.20
2022-12-22T02:40:41.497Z,8.16
2022-12-22T02:44:20.530Z,8.10
2022-12-22T02:47:48.204Z,8.24
2022-12-22T02:51:14.944Z,8.17
2022-12-22T02:54:36.863Z,8.32
2022-12-22T02:57:58.689Z,8.39
2022-12-22T03:05:04.110Z,8.46
2022-12-22T03:08:26.025Z,8.52
2022-12-22T03:11:46.915Z,8.39
2022-12-22T03:15:08.647Z,8.40
2022-12-22T03:18:32.990Z,8.27
2022-12-22T03:21:53.250Z,8.40
2022-12-22T03:25:15.491Z,8.18
2022-12-22T03:28:21.707Z,8.10
2022-12-22T03:31:26.265Z,8.11
2022-12-22T03:34:30.924Z,8.29
2022-12-22T03:37:37.601Z,8.24
2022-12-22T03:40:44.528Z,8.31
2022-12-22T03:47:35.500Z,8.23
2022-12-22T03:50:42.904Z,8.48
2022-12-22T03:53:47.868Z,8.42
2022-12-22T03:56:54.436Z,8.45
2022-12-22T03:59:59.088Z,8.40
2022-12-22T04:03:03.911Z,8.33
2022-12-22T04:06:08.815Z,8.41
2022-12-22T04:09:15.151Z,8.42
2022-12-22T04:12:35.983Z,8.54
2022-12-22T04:15:40.879Z,8.50
2022-12-22T04:18:44.177Z,8.51
2022-12-22T04:21:50.539Z,8.55
2022-12-22T04:25:02.248Z,8.69
2022-12-22T04:28:10.149Z,8.67
2022-12-22T04:31:16.131Z,8.58
2022-12-22T04:34:19.473Z,8.60
2022-12-22T04:37:25.409Z,8.56
2022-12-22T04:40:29.131Z,8.63
2022-12-22T04:43:33.535Z,8.61
2022-12-22T04:46:36.946Z,8.69
2022-12-22T04:49:41.821Z,8.67
2022-12-22T04:52:48.625Z,8.79
2022-12-22T04:55:58.074Z,8.73
2022-12-22T04:59:03.849Z,8.77
2022-12-22T05:02:08.409Z,8.73
2022-12-22T05:05:14.644Z,8.78
2022-12-22T05:08:23.474Z,8.78
2022-12-22T05:11:26.909Z,8.68
2022-12-22T05:14:40.362Z,8.79
2022-12-22T05:17:50.305Z,8.77
2022-12-22T05:20:58.872Z,8.86
2022-12-22T05:24:05.163Z,8.80
2022-12-22T05:27:10.839Z,8.80
2022-12-22T05:30:16.474Z,8.81
2022-12-22T05:33:21.290Z,8.76
2022-12-22T05:36:25.060Z,8.82
2022-12-22T05:39:31.213Z,8.88
2022-12-22T05:42:37.988Z,8.89
2022-12-22T05:49:07.357Z,8.80
2022-12-22T05:52:10.881Z,8.76
2022-12-22T05:55:20.808Z,8.67
2022-12-22T05:58:25.745Z,8.66
2022-12-22T06:01:29.032Z,8.65
2022-12-22T06:04:43.649Z,8.67
2022-12-22T06:07:46.881Z,8.69
2022-12-22T06:10:51.843Z,8.87
2022-12-22T06:13:56.353Z,8.80
2022-12-22T06:16:59.625Z,8.86
2022-12-22T06:20:05.182Z,8.83
2022-12-22T06:23:08.688Z,8.86
2022-12-22T06:26:16.504Z,8.92
2022-12-22T06:29:24.747Z,8.85
2022-12-22T06:32:27.991Z,8.95
2022-12-22T06:35:32.658Z,8.88
2022-12-22T06:38:36.215Z,8.96
2022-12-22T06:42:00.058Z,8.99
2022-12-22T06:45:05.218Z,8.98
2022-12-22T06:48:12.936Z,8.90
2022-12-22T06:51:20.931Z,8.81
2022-12-22T06:54:29.145Z,8.94
2022-12-22T06:57:34.068Z,8.94
2022-12-22T07:00:40.131Z,8.93
2022-12-22T07:03:45.235Z,8.94
2022-12-22T07:06:50.384Z,9.05
2022-12-22T07:09:55.711Z,9.12
2022-12-22T07:13:19.367Z,9.20
2022-12-22T07:16:24.385Z,9.15
2022-12-22T07:19:27.578Z,9.16
2022-12-22T07:22:32.834Z,9.27
2022-12-22T07:25:40.655Z,9.18
2022-12-22T07:28:46.054Z,9.18
2022-12-22T07:31:51.044Z,9.18
2022-12-22T07:34:57.677Z,9.13
2022-12-22T07:38:03.375Z,9.13
2022-12-22T07:41:29.748Z,9.09
2022-12-22T07:44:35.026Z,9.12
2022-12-22T07:47:39.687Z,9.17
2022-12-22T07:50:44.774Z,8.96
2022-12-22T07:53:51.078Z,8.92
2022-12-22T07:56:57.354Z,8.90
2022-12-22T08:00:02.597Z,8.96
2022-12-22T08:03:10.540Z,8.79
2022-12-22T08:06:16.794Z,8.95
2022-12-22T08:09:24.335Z,8.89
2022-12-22T08:12:29.482Z,8.89
2022-12-22T08:15:38.389Z,8.90
2022-12-22T08:18:48.657Z,8.84
2022-12-22T08:21:56.068Z,8.84
2022-12-22T08:25:01.582Z,8.97
2022-12-22T08:28:06.783Z,8.85
2022-12-22T08:31:12.449Z,8.94
2022-12-22T08:34:21.516Z,8.90
2022-12-22T08:37:32.826Z,9.11
2022-12-22T08:40:42.014Z,9.04
2022-12-22T08:43:46.570Z,8.87
2022-12-22T08:46:55.263Z,8.88
2022-12-22T08:50:03.028Z,9.04
2022-12-22T08:53:23.751Z,8.93
2022-12-22T08:56:37.876Z,9.11
2022-12-22T08:59:41.070Z,9.08
2022-12-22T09:02:47.293Z,9.04
2022-12-22T09:05:50.714Z,9.00
2022-12-22T09:12:17.679Z,9.08
2022-12-22T09:15:22.229Z,9.06
2022-12-22T09:18:27.341Z,9.24
2022-12-22T09:21:39.529Z,9.27
2022-12-22T09:28:08.294Z,9.32
2022-12-22T09:31:16.748Z,9.29
2022-12-22T09:34:21.974Z,9.38
2022-12-22T09:37:30.530Z,9.27
2022-12-22T09:40:35.610Z,9.30
2022-12-22T09:43:41.076Z,9.29
2022-12-22T09:46:46.021Z,9.35
2022-12-22T09:53:24.135Z,9.30
2022-12-22T09:56:30.169Z,9.35
2022-12-22T09:59:39.717Z,9.42
2022-12-22T10:02:53.208Z,9.34
2022-12-22T10:06:10.922Z,9.40
2022-12-22T10:09:46.202Z,9.40
2022-12-22T10:16:19.940Z,9.33
2022-12-22T10:19:29.735Z,9.50
2022-12-22T10:22:48.489Z,9.41
2022-12-22T10:29:33.864Z,9.42
2022-12-22T10:32:38.439Z,9.42
2022-12-22T10:36:06.984Z,9.39
2022-12-22T10:39:13.709Z,9.37
2022-12-22T10:42:20.913Z,9.42
2022-12-22T10:45:27.820Z,9.38
2022-12-22T10:48:35.507Z,9.38
2022-12-22T10:51:41.127Z,9.40
2022-12-22T10:54:47.827Z,9.37
2022-12-22T10:57:52.390Z,9.47
2022-12-22T11:01:03.791Z,9.48
2022-12-22T11:04:19.090Z,9.44
2022-12-22T11:07:23.112Z,9.40
2022-12-22T11:10:38.226Z,9.48
2022-12-22T11:13:59.860Z,9.56
2022-12-22T11:17:13.558Z,9.57
2022-12-22T11:20:48.779Z,9.82
2022-12-22T11:24:06.248Z,9.79
2022-12-22T11:27:25.905Z,9.85
2022-12-22T11:30:38.489Z,9.99
2022-12-22T11:33:51.547Z,10.00
2022-12-22T11:37:04.817Z,10.12
2022-12-22T11:40:31.059Z,9.98
2022-12-22T11:43:47.327Z,10.02
2022-12-22T11:47:03.359Z,10.05
2022-12-22T11:51:01.265Z,10.04
2022-12-22T11:54:14.713Z,10.08
2022-12-22T11:57:29.785Z,10.12
2022-12-22T12:01:14.044Z,10.13
2022-12-22T12:04:43.964Z,10.22
2022-12-22T12:07:52.121Z,10.14
2022-12-22T12:11:07.435Z,10.13
2022-12-22T12:14:23.108Z,10.09
2022-12-22T12:17:38.627Z,10.05
2022-12-22T12:20:58.883Z,10.11
2022-12-22T12:24:42.781Z,10.21
2022-12-22T12:28:08.429Z,10.12
2022-12-22T12:31:24.316Z,10.01
2022-12-22T12:34:34.819Z,10.01
2022-12-22T12:37:40.483Z,10.03
2022-12-22T12:40:51.644Z,10.10
2022-12-22T12:43:57.054Z,10.01
2022-12-22T12:47:10.624Z,10.03
2022-12-22T12:50:33.971Z,10.05
2022-12-22T12:53:36.684Z,9.98
2022-12-22T12:56:56.238Z,10.04
2022-12-22T13:00:00.582Z,10.04
2022-12-22T13:03:04.724Z,9.98
2022-12-22T13:06:10.859Z,9.99
2022-12-22T13:09:49.117Z,9.96
2022-12-22T13:12:51.647Z,9.95
2022-12-22T13:16:39.104Z,9.94
2022-12-22T13:19:42.257Z,9.96
2022-12-22T13:22:47.111Z,9.90
2022-12-22T13:25:54.739Z,9.89
2022-12-22T13:29:00.151Z,9.91
2022-12-22T13:32:04.925Z,9.94
2022-12-22T13:35:35.502Z,9.95
2022-12-22T13:38:41.462Z,9.90
2022-12-22T13:41:47.432Z,9.87
2022-12-22T13:44:50.310Z,9.93
2022-12-22T13:47:53.795Z,9.88
2022-12-22T13:51:01.201Z,9.85
2022-12-22T13:54:14.281Z,9.81
2022-12-22T13:57:22.388Z,9.77
2022-12-22T14:00:27.885Z,9.74
2022-12-22T14:03:58.649Z,9.81
2022-12-22T14:06:55.477Z,9.74
2022-12-22T14:10:00.272Z,9.68
2022-12-22T14:13:08.808Z,9.60
2022-12-22T14:16:14.695Z,9.62
2022-12-22T14:19:19.924Z,9.62
2022-12-22T14:22:27.100Z,9.63
2022-12-22T14:25:34.598Z,9.64
2022-12-22T14:28:44.439Z,9.66
2022-12-22T14:31:58.818Z,9.65
2022-12-22T14:35:01.696Z,9.61
2022-12-22T14:38:21.341Z,9.68
2022-12-22T14:41:45.021Z,9.45
2022-12-22T14:44:50.317Z,9.52
2022-12-22T14:47:54.924Z,9.55
2022-12-22T14:50:58.267Z,9.54
2022-12-22T14:54:03.619Z,9.52
2022-12-22T14:57:16.243Z,9.64
2022-12-22T15:00:32.257Z,9.69
2022-12-22T15:03:38.118Z,9.51
2022-12-22T15:06:45.541Z,9.54
2022-12-22T15:10:14.389Z,9.52
2022-12-22T15:13:22.639Z,9.50
2022-12-22T15:16:26.694Z,9.49
2022-12-22T15:19:32.134Z,9.53
2022-12-22T15:22:34.909Z,9.52
2022-12-22T15:25:37.631Z,9.56
2022-12-22T15:28:43.173Z,9.62
2022-12-22T15:31:46.222Z,9.59
2022-12-22T15:34:49.867Z,9.58
2022-12-22T15:37:52.626Z,9.64
2022-12-22T15:40:56.402Z,9.69
2022-12-22T15:44:01.664Z,9.70
2022-12-22T15:47:04.996Z,9.75
2022-12-22T15:50:15.041Z,9.46
2022-12-22T15:53:21.045Z,9.56
2022-12-22T15:56:26.468Z,9.53
2022-12-22T15:59:32.508Z,9.48
2022-12-22T16:02:36.630Z,9.51
2022-12-22T16:05:42.322Z,9.44
2022-12-22T16:08:50.763Z,9.42
2022-12-22T16:11:54.304Z,9.36
2022-12-22T16:15:04.880Z,9.35
2022-12-22T16:18:09.770Z,9.24
2022-12-22T16:21:17.980Z,9.32
2022-12-22T16:24:31.758Z,9.32
2022-12-22T16:27:36.688Z,9.34
2022-12-22T16:30:42.391Z,9.22
2022-12-22T16:33:48.322Z,9.18
2022-12-22T16:36:51.446Z,9.19
2022-12-22T16:39:55.619Z,9.10
2022-12-22T16:46:26.616Z,8.98
2022-12-22T16:49:30.020Z,8.78
2022-12-22T16:52:39.428Z,8.76
2022-12-22T16:55:43.456Z,8.76
2022-12-22T16:58:48.352Z,8.77
2022-12-22T17:01:57.210Z,8.79
2022-12-22T17:05:03.569Z,8.72
2022-12-22T17:08:08.513Z,8.72
2022-12-22T17:11:20.490Z,8.79
2022-12-22T17:14:31.058Z,8.77
2022-12-22T17:17:41.933Z,8.67
2022-12-22T17:20:47.711Z,8.51
2022-12-22T17:23:52.926Z,8.55
2022-12-22T17:26:57.891Z,8.56
2022-12-22T17:30:06.162Z,8.50
2022-12-22T17:33:17.805Z,8.47
2022-12-22T17:36:33.154Z,8.39
2022-12-22T17:39:38.742Z,8.30
2022-12-22T17:42:42.129Z,8.25
2022-12-22T17:45:46.888Z,8.22
2022-12-22T17:48:53.023Z,8.22
2022-12-22T17:51:56.079Z,8.12
2022-12-22T17:55:00.315Z,8.16
2022-12-22T17:58:05.089Z,8.11
2022-12-22T18:01:11.251Z,8.08
2022-12-22T18:04:16.995Z,8.06
2022-12-22T18:07:24.920Z,7.99
2022-12-22T18:10:31.036Z,7.93
2022-12-22T18:13:38.101Z,7.86
2022-12-22T18:16:41.303Z,7.91
2022-12-22T18:19:47.034Z,7.91
2022-12-22T18:22:53.327Z,7.95
2022-12-22T18:25:58.634Z,7.91
2022-12-22T18:29:01.813Z,8.03
2022-12-22T18:32:06.291Z,8.05
2022-12-22T18:35:12.257Z,7.98
2022-12-22T18:38:27.045Z,8.02
2022-12-22T18:41:34.711Z,8.07
2022-12-22T18:44:38.745Z,7.89
2022-12-22T18:47:41.497Z,7.82
2022-12-22T18:50:46.965Z,7.73
2022-12-22T18:53:52.371Z,7.63
2022-12-22T18:56:55.657Z,7.68
2022-12-22T18:59:59.929Z,7.56
2022-12-22T19:03:04.176Z,7.53
2022-12-22T19:06:12.161Z,7.47
2022-12-22T19:09:16.513Z,7.43
2022-12-22T19:12:24.214Z,7.36
2022-12-22T19:15:32.133Z,7.33
2022-12-22T19:18:34.911Z,7.28
2022-12-22T19:21:39.162Z,7.27
2022-12-22T19:24:45.128Z,7.27
2022-12-22T19:27:51.104Z,7.25
2022-12-22T19:30:55.563Z,7.25
2022-12-22T19:34:01.345Z,7.22
2022-12-22T19:37:05.787Z,7.16
2022-12-22T19:40:10.336Z,7.15
2022-12-22T19:43:13.650Z,7.09
2022-12-22T19:46:18.802Z,7.04
2022-12-22T19:49:23.766Z,7.01
2022-12-22T19:52:28.309Z,6.95
2022-12-22T19:55:35.449Z,6.93
2022-12-22T19:58:41.375Z,6.89
2022-12-22T20:01:46.768Z,6.84
2022-12-22T20:04:50.449Z,6.79
2022-12-22T20:11:21.285Z,6.91
2022-12-22T20:14:25.665Z,6.83
2022-12-22T20:17:28.672Z,6.78
2022-12-22T20:20:35.831Z,6.69
2022-12-22T20:23:40.915Z,6.65
2022-12-22T20:26:47.285Z,6.61
2022-12-22T20:29:54.162Z,6.63
2022-12-22T20:32:57.230Z,6.66
2022-12-22T20:36:03.375Z,6.69
2022-12-22T20:39:14.368Z,6.72
2022-12-22T20:42:19.825Z,6.75
2022-12-22T20:45:23.160Z,6.79
2022-12-22T20:48:32.621Z,6.71
2022-12-22T20:51:35.711Z,6.69
2022-12-22T20:54:39.896Z,6.76
2022-12-22T20:57:42.832Z,6.71
2022-12-22T21:00:46.007Z,6.73
2022-12-22T21:03:48.875Z,6.80
2022-12-22T21:10:27.189Z,6.78
2022-12-22T21:13:29.931Z,6.74
2022-12-22T21:16:34.313Z,6.78
2022-12-22T21:19:37.205Z,6.80
2022-12-22T21:22:41.317Z,6.77
2022-12-22T21:25:47.056Z,6.76
2022-12-22T21:32:16.252Z,6.77
2022-12-22T21:35:21.727Z,6.72
2022-12-22T21:38:28.003Z,6.72
2022-12-22T21:45:26.706Z,6.78
2022-12-22T21:48:31.074Z,6.80
2022-12-22T21:51:34.027Z,6.77
2022-12-22T21:54:37.088Z,6.76
2022-12-22T21:57:42.950Z,6.74
2022-12-22T22:00:49.701Z,6.73
2022-12-22T22:03:56.820Z,6.68
2022-12-22T22:07:02.581Z,6.74
2022-12-22T22:10:07.938Z,6.71
2022-12-22T22:13:17.498Z,6.72
2022-12-22T22:16:22.108Z,6.75
2022-12-22T22:19:25.110Z,6.79
2022-12-22T22:22:28.104Z,6.75
2022-12-22T22:25:31.123Z,6.94
2022-12-22T22:28:37.720Z,6.98
2022-12-22T22:31:41.964Z,6.87
2022-12-22T22:34:46.595Z,6.78
2022-12-22T22:37:55.224Z,6.77
2022-12-22T22:40:59.768Z,6.71
2022-12-22T22:44:04.337Z,6.68
2022-12-22T22:47:07.465Z,6.67
2022-12-22T22:50:11.976Z,6.60
2022-12-22T22:53:17.051Z,6.55
2022-12-22T22:56:23.719Z,6.56
2022-12-22T23:06:17.615Z,8.15
2022-12-22T23:09:24.754Z,8.33
2022-12-22T23:12:30.545Z,8.39
2022-12-22T23:15:35.849Z,8.19
2022-12-22T23:18:39.995Z,8.24
2022-12-22T23:21:42.810Z,8.28
2022-12-22T23:24:46.780Z,8.14
2022-12-22T23:27:50.744Z,8.15
2022-12-22T23:30:56.111Z,8.27
2022-12-22T23:34:00.424Z,8.43
2022-12-22T23:37:04.075Z,8.46
2022-12-22T23:40:50.306Z,8.73
2022-12-22T23:43:32.435Z,8.60
2022-12-22T23:46:36.608Z,8.65
2022-12-22T23:53:00.873Z,8.60
2022-12-22T23:56:03.954Z,8.93
2022-12-22T23:59:06.790Z,8.81
